sensor_id;sensor_type;location;lat;lon;timestamp;P1;durP1;ratioP1;P2;durP2;ratioP2
18780;SDS011;9519;51.890;8.970;2023-06-22T00:04:56;12.45;;;11.10;;
18780;SDS011;9519;51.890;8.970;2023-06-22T00:09:59;14.95;;;12.25;;
18780;SDS011;9519;51.890;8.970;2023-06-22T00:15:02;14.57;;;12.55;;
18780;SDS011;9519;51.890;8.970;2023-06-22T00:20:05;13.88;;;12.05;;
18780;SDS011;9519;51.890;8.970;2023-06-22T00:25:13;13.80;;;12.50;;
18780;SDS011;9519;51.890;8.970;2023-06-22T00:30:15;15.05;;;13.55;;
18780;SDS011;9519;51.890;8.970;2023-06-22T00:35:18;14.38;;;12.98;;
18780;SDS011;9519;51.890;8.970;2023-06-22T00:40:21;15.02;;;13.50;;
18780;SDS011;9519;51.890;8.970;2023-06-22T00:45:23;16.08;;;14.55;;
18780;SDS011;9519;51.890;8.970;2023-06-22T00:50:27;18.33;;;15.57;;
18780;SDS011;9519;51.890;8.970;2023-06-22T00:55:34;15.13;;;13.63;;
18780;SDS011;9519;51.890;8.970;2023-06-22T01:00:38;15.80;;;14.20;;
18780;SDS011;9519;51.890;8.970;2023-06-22T01:05:41;14.15;;;12.52;;
18780;SDS011;9519;51.890;8.970;2023-06-22T01:10:51;14.93;;;13.40;;
18780;SDS011;9519;51.890;8.970;2023-06-22T01:16:01;18.83;;;13.45;;
18780;SDS011;9519;51.890;8.970;2023-06-22T01:21:09;15.68;;;13.90;;
18780;SDS011;9519;51.890;8.970;2023-06-22T01:26:20;16.67;;;14.05;;
18780;SDS011;9519;51.890;8.970;2023-06-22T01:31:36;14.90;;;13.40;;
18780;SDS011;9519;51.890;8.970;2023-06-22T01:36:40;14.38;;;12.82;;
18780;SDS011;9519;51.890;8.970;2023-06-22T01:41:44;13.20;;;11.90;;
18780;SDS011;9519;51.890;8.970;2023-06-22T01:46:48;14.68;;;12.57;;
18780;SDS011;9519;51.890;8.970;2023-06-22T01:51:53;17.27;;;15.02;;
18780;SDS011;9519;51.890;8.970;2023-06-22T01:56:55;16.65;;;14.40;;
18780;SDS011;9519;51.890;8.970;2023-06-22T02:02:01;15.65;;;13.48;;
18780;SDS011;9519;51.890;8.970;2023-06-22T02:07:12;16.40;;;13.50;;
18780;SDS011;9519;51.890;8.970;2023-06-22T02:12:18;15.98;;;13.90;;
18780;SDS011;9519;51.890;8.970;2023-06-22T02:17:52;17.67;;;13.77;;
18780;SDS011;9519;51.890;8.970;2023-06-22T02:22:54;19.40;;;14.77;;
18780;SDS011;9519;51.890;8.970;2023-06-22T02:27:56;23.48;;;17.30;;
18780;SDS011;9519;51.890;8.970;2023-06-22T02:33:03;16.17;;;14.57;;
18780;SDS011;9519;51.890;8.970;2023-06-22T02:38:05;18.58;;;14.43;;
18780;SDS011;9519;51.890;8.970;2023-06-22T02:43:08;17.40;;;15.35;;
18780;SDS011;9519;51.890;8.970;2023-06-22T02:48:11;15.68;;;13.73;;
18780;SDS011;9519;51.890;8.970;2023-06-22T02:53:13;14.45;;;12.95;;
18780;SDS011;9519;51.890;8.970;2023-06-22T02:58:15;17.70;;;14.35;;
18780;SDS011;9519;51.890;8.970;2023-06-22T03:03:19;14.65;;;13.15;;
18780;SDS011;9519;51.890;8.970;2023-06-22T03:08:21;14.05;;;12.65;;
18780;SDS011;9519;51.890;8.970;2023-06-22T03:13:23;15.57;;;12.73;;
18780;SDS011;9519;51.890;8.970;2023-06-22T03:18:26;14.55;;;12.50;;
18780;SDS011;9519;51.890;8.970;2023-06-22T03:23:28;16.75;;;13.25;;
18780;SDS011;9519;51.890;8.970;2023-06-22T03:28:30;16.67;;;14.18;;
18780;SDS011;9519;51.890;8.970;2023-06-22T03:33:34;14.73;;;13.25;;
18780;SDS011;9519;51.890;8.970;2023-06-22T03:38:36;14.82;;;13.18;;
18780;SDS011;9519;51.890;8.970;2023-06-22T03:43:39;15.55;;;13.25;;
18780;SDS011;9519;51.890;8.970;2023-06-22T03:48:42;18.02;;;14.10;;
18780;SDS011;9519;51.890;8.970;2023-06-22T03:53:44;15.90;;;14.27;;
18780;SDS011;9519;51.890;8.970;2023-06-22T03:58:46;16.42;;;14.85;;
18780;SDS011;9519;51.890;8.970;2023-06-22T04:03:49;16.33;;;14.63;;
18780;SDS011;9519;51.890;8.970;2023-06-22T04:08:51;17.02;;;14.68;;
18780;SDS011;9519;51.890;8.970;2023-06-22T04:13:53;20.00;;;15.68;;
18780;SDS011;9519;51.890;8.970;2023-06-22T04:18:57;17.90;;;14.32;;
18780;SDS011;9519;51.890;8.970;2023-06-22T04:23:59;16.30;;;14.45;;
18780;SDS011;9519;51.890;8.970;2023-06-22T04:29:01;17.73;;;14.18;;
18780;SDS011;9519;51.890;8.970;2023-06-22T04:34:07;16.63;;;14.63;;
18780;SDS011;9519;51.890;8.970;2023-06-22T04:39:10;14.13;;;12.73;;
18780;SDS011;9519;51.890;8.970;2023-06-22T04:44:12;14.32;;;12.00;;
18780;SDS011;9519;51.890;8.970;2023-06-22T04:49:25;15.23;;;12.27;;
18780;SDS011;9519;51.890;8.970;2023-06-22T04:54:33;14.90;;;12.93;;
18780;SDS011;9519;51.890;8.970;2023-06-22T04:59:36;16.75;;;14.27;;
18780;SDS011;9519;51.890;8.970;2023-06-22T05:04:42;14.63;;;12.57;;
18780;SDS011;9519;51.890;8.970;2023-06-22T05:09:44;15.38;;;13.88;;
18780;SDS011;9519;51.890;8.970;2023-06-22T05:14:47;13.70;;;12.32;;
18780;SDS011;9519;51.890;8.970;2023-06-22T05:19:50;14.27;;;12.80;;
18780;SDS011;9519;51.890;8.970;2023-06-22T05:24:52;14.48;;;13.00;;
18780;SDS011;9519;51.890;8.970;2023-06-22T05:29:54;15.25;;;13.18;;
18780;SDS011;9519;51.890;8.970;2023-06-22T05:34:58;13.32;;;12.02;;
18780;SDS011;9519;51.890;8.970;2023-06-22T05:40:00;15.15;;;13.65;;
18780;SDS011;9519;51.890;8.970;2023-06-22T05:45:03;16.20;;;13.18;;
18780;SDS011;9519;51.890;8.970;2023-06-22T05:50:09;16.13;;;14.35;;
18780;SDS011;9519;51.890;8.970;2023-06-22T05:55:11;15.93;;;14.23;;
18780;SDS011;9519;51.890;8.970;2023-06-22T06:00:13;16.20;;;14.60;;
18780;SDS011;9519;51.890;8.970;2023-06-22T06:05:18;16.85;;;14.98;;
18780;SDS011;9519;51.890;8.970;2023-06-22T06:10:20;18.10;;;15.38;;
18780;SDS011;9519;51.890;8.970;2023-06-22T06:15:22;49.92;;;34.15;;
18780;SDS011;9519;51.890;8.970;2023-06-22T06:20:28;17.55;;;15.05;;
18780;SDS011;9519;51.890;8.970;2023-06-22T06:25:39;18.05;;;16.27;;
18780;SDS011;9519;51.890;8.970;2023-06-22T06:30:43;56.70;;;39.53;;
18780;SDS011;9519;51.890;8.970;2023-06-22T06:35:48;80.20;;;50.35;;
18780;SDS011;9519;51.890;8.970;2023-06-22T06:40:53;41.83;;;30.02;;
18780;SDS011;9519;51.890;8.970;2023-06-22T06:45:55;18.17;;;16.27;;
18780;SDS011;9519;51.890;8.970;2023-06-22T06:50:59;18.83;;;16.08;;
18780;SDS011;9519;51.890;8.970;2023-06-22T06:56:01;20.40;;;17.05;;
18780;SDS011;9519;51.890;8.970;2023-06-22T07:01:03;17.75;;;15.93;;
18780;SDS011;9519;51.890;8.970;2023-06-22T07:06:08;29.20;;;22.83;;
18780;SDS011;9519;51.890;8.970;2023-06-22T07:11:10;26.42;;;21.25;;
18780;SDS011;9519;51.890;8.970;2023-06-22T07:16:12;43.70;;;32.22;;
18780;SDS011;9519;51.890;8.970;2023-06-22T07:21:15;23.00;;;19.15;;
18780;SDS011;9519;51.890;8.970;2023-06-22T07:26:17;20.50;;;17.98;;
18780;SDS011;9519;51.890;8.970;2023-06-22T07:31:19;21.13;;;19.02;;
18780;SDS011;9519;51.890;8.970;2023-06-22T07:36:23;19.85;;;17.85;;
18780;SDS011;9519;51.890;8.970;2023-06-22T07:41:25;22.67;;;20.42;;
18780;SDS011;9519;51.890;8.970;2023-06-22T07:46:27;20.55;;;18.45;;
18780;SDS011;9519;51.890;8.970;2023-06-22T07:51:31;21.77;;;19.58;;
18780;SDS011;9519;51.890;8.970;2023-06-22T07:56:33;21.27;;;19.17;;
18780;SDS011;9519;51.890;8.970;2023-06-22T08:01:35;21.10;;;19.20;;
18780;SDS011;9519;51.890;8.970;2023-06-22T08:06:39;20.40;;;18.40;;
18780;SDS011;9519;51.890;8.970;2023-06-22T08:11:41;21.55;;;19.42;;
18780;SDS011;9519;51.890;8.970;2023-06-22T08:16:43;96.85;;;65.18;;
18780;SDS011;9519;51.890;8.970;2023-06-22T08:21:46;38.08;;;28.80;;
18780;SDS011;9519;51.890;8.970;2023-06-22T08:26:50;76.10;;;49.38;;
18780;SDS011;9519;51.890;8.970;2023-06-22T08:31:53;22.27;;;20.20;;
18780;SDS011;9519;51.890;8.970;2023-06-22T08:36:56;21.77;;;19.75;;
18780;SDS011;9519;51.890;8.970;2023-06-22T08:41:58;21.35;;;19.25;;
18780;SDS011;9519;51.890;8.970;2023-06-22T08:47:01;20.08;;;18.17;;
18780;SDS011;9519;51.890;8.970;2023-06-22T08:52:06;20.40;;;18.50;;
18780;SDS011;9519;51.890;8.970;2023-06-22T08:57:09;20.67;;;18.88;;
18780;SDS011;9519;51.890;8.970;2023-06-22T09:02:11;21.95;;;19.85;;
18780;SDS011;9519;51.890;8.970;2023-06-22T09:07:14;19.88;;;17.98;;
18780;SDS011;9519;51.890;8.970;2023-06-22T09:12:22;19.27;;;17.40;;
18780;SDS011;9519;51.890;8.970;2023-06-22T09:17:27;15.55;;;13.85;;
18780;SDS011;9519;51.890;8.970;2023-06-22T09:22:30;16.10;;;14.50;;
18780;SDS011;9519;51.890;8.970;2023-06-22T09:27:33;12.98;;;11.77;;
18780;SDS011;9519;51.890;8.970;2023-06-22T09:32:35;14.15;;;12.25;;
18780;SDS011;9519;51.890;8.970;2023-06-22T09:37:38;12.50;;;11.30;;
18780;SDS011;9519;51.890;8.970;2023-06-22T09:42:41;12.52;;;11.23;;
18780;SDS011;9519;51.890;8.970;2023-06-22T09:47:43;14.00;;;12.60;;
18780;SDS011;9519;51.890;8.970;2023-06-22T09:52:46;14.32;;;12.93;;
18780;SDS011;9519;51.890;8.970;2023-06-22T09:57:56;13.63;;;12.32;;
18780;SDS011;9519;51.890;8.970;2023-06-22T10:02:58;15.13;;;13.52;;
18780;SDS011;9519;51.890;8.970;2023-06-22T10:08:02;13.13;;;11.73;;
18780;SDS011;9519;51.890;8.970;2023-06-22T10:13:07;12.90;;;11.60;;
18780;SDS011;9519;51.890;8.970;2023-06-22T10:18:11;12.48;;;11.18;;
18780;SDS011;9519;51.890;8.970;2023-06-22T10:23:15;12.45;;;10.77;;
18780;SDS011;9519;51.890;8.970;2023-06-22T10:28:17;12.27;;;11.07;;
18780;SDS011;9519;51.890;8.970;2023-06-22T10:33:19;11.73;;;10.45;;
18780;SDS011;9519;51.890;8.970;2023-06-22T10:38:22;12.02;;;10.63;;
18780;SDS011;9519;51.890;8.970;2023-06-22T10:43:24;12.13;;;10.80;;
18780;SDS011;9519;51.890;8.970;2023-06-22T10:48:27;11.88;;;10.20;;
18780;SDS011;9519;51.890;8.970;2023-06-22T10:53:30;10.77;;;9.68;;
18780;SDS011;9519;51.890;8.970;2023-06-22T10:58:33;10.75;;;9.60;;
18780;SDS011;9519;51.890;8.970;2023-06-22T11:03:35;10.25;;;9.15;;
18780;SDS011;9519;51.890;8.970;2023-06-22T11:08:40;9.98;;;9.02;;
18780;SDS011;9519;51.890;8.970;2023-06-22T11:13:45;10.60;;;9.60;;
18780;SDS011;9519;51.890;8.970;2023-06-22T11:18:47;13.93;;;9.93;;
18780;SDS011;9519;51.890;8.970;2023-06-22T11:23:51;10.45;;;8.68;;
18780;SDS011;9519;51.890;8.970;2023-06-22T11:28:53;10.93;;;9.82;;
18780;SDS011;9519;51.890;8.970;2023-06-22T11:33:55;10.95;;;9.95;;
18780;SDS011;9519;51.890;8.970;2023-06-22T11:38:58;13.77;;;11.02;;
18780;SDS011;9519;51.890;8.970;2023-06-22T11:44:00;11.77;;;9.65;;
18780;SDS011;9519;51.890;8.970;2023-06-22T11:49:04;12.75;;;11.20;;
18780;SDS011;9519;51.890;8.970;2023-06-22T11:54:08;11.55;;;10.35;;
18780;SDS011;9519;51.890;8.970;2023-06-22T11:59:10;11.05;;;9.88;;
18780;SDS011;9519;51.890;8.970;2023-06-22T12:04:12;12.48;;;11.18;;
18780;SDS011;9519;51.890;8.970;2023-06-22T12:09:15;13.63;;;10.10;;
18780;SDS011;9519;51.890;8.970;2023-06-22T12:14:17;10.25;;;9.20;;
18780;SDS011;9519;51.890;8.970;2023-06-22T12:19:19;10.60;;;9.50;;
18780;SDS011;9519;51.890;8.970;2023-06-22T12:24:23;12.65;;;10.70;;
18780;SDS011;9519;51.890;8.970;2023-06-22T12:29:25;13.65;;;10.50;;
18780;SDS011;9519;51.890;8.970;2023-06-22T12:34:27;11.43;;;10.30;;
18780;SDS011;9519;51.890;8.970;2023-06-22T12:39:31;12.65;;;10.15;;
18780;SDS011;9519;51.890;8.970;2023-06-22T12:44:33;11.88;;;9.45;;
18780;SDS011;9519;51.890;8.970;2023-06-22T12:49:35;10.18;;;9.18;;
18780;SDS011;9519;51.890;8.970;2023-06-22T12:54:39;10.65;;;9.35;;
18780;SDS011;9519;51.890;8.970;2023-06-22T12:59:41;10.98;;;9.88;;
18780;SDS011;9519;51.890;8.970;2023-06-22T13:04:43;25.98;;;13.55;;
18780;SDS011;9519;51.890;8.970;2023-06-22T13:09:46;20.17;;;14.50;;
18780;SDS011;9519;51.890;8.970;2023-06-22T13:14:51;16.38;;;14.70;;
18780;SDS011;9519;51.890;8.970;2023-06-22T13:19:53;19.75;;;16.67;;
18780;SDS011;9519;51.890;8.970;2023-06-22T13:24:57;21.13;;;19.02;;
18780;SDS011;9519;51.890;8.970;2023-06-22T13:30:00;20.23;;;18.20;;
18780;SDS011;9519;51.890;8.970;2023-06-22T13:35:04;21.38;;;19.15;;
18780;SDS011;9519;51.890;8.970;2023-06-22T13:40:08;20.90;;;18.88;;
18780;SDS011;9519;51.890;8.970;2023-06-22T13:45:11;21.38;;;18.95;;
18780;SDS011;9519;51.890;8.970;2023-06-22T13:50:13;21.23;;;18.90;;
18780;SDS011;9519;51.890;8.970;2023-06-22T13:55:17;23.23;;;20.50;;
18780;SDS011;9519;51.890;8.970;2023-06-22T14:00:21;24.23;;;20.08;;
18780;SDS011;9519;51.890;8.970;2023-06-22T14:05:23;36.45;;;23.80;;
18780;SDS011;9519;51.890;8.970;2023-06-22T14:10:26;33.03;;;25.77;;
18780;SDS011;9519;51.890;8.970;2023-06-22T14:15:28;34.08;;;29.38;;
18780;SDS011;9519;51.890;8.970;2023-06-22T14:20:30;35.38;;;31.58;;
18780;SDS011;9519;51.890;8.970;2023-06-22T14:25:34;32.45;;;29.17;;
18780;SDS011;9519;51.890;8.970;2023-06-22T14:30:36;37.95;;;34.00;;
18780;SDS011;9519;51.890;8.970;2023-06-22T14:35:38;30.85;;;27.67;;
18780;SDS011;9519;51.890;8.970;2023-06-22T14:40:41;30.65;;;27.63;;
18780;SDS011;9519;51.890;8.970;2023-06-22T14:45:43;33.20;;;29.55;;
18780;SDS011;9519;51.890;8.970;2023-06-22T14:50:45;30.80;;;27.65;;
18780;SDS011;9519;51.890;8.970;2023-06-22T14:55:49;36.88;;;29.05;;
18780;SDS011;9519;51.890;8.970;2023-06-22T15:00:51;34.35;;;30.70;;
18780;SDS011;9519;51.890;8.970;2023-06-22T15:05:53;38.45;;;34.45;;
18780;SDS011;9519;51.890;8.970;2023-06-22T15:10:59;36.58;;;32.97;;
18780;SDS011;9519;51.890;8.970;2023-06-22T15:16:02;38.90;;;34.80;;
18780;SDS011;9519;51.890;8.970;2023-06-22T15:21:05;42.10;;;37.15;;
18780;SDS011;9519;51.890;8.970;2023-06-22T15:26:10;43.97;;;39.25;;
18780;SDS011;9519;51.890;8.970;2023-06-22T15:31:12;51.38;;;45.72;;
18780;SDS011;9519;51.890;8.970;2023-06-22T15:36:14;49.20;;;43.90;;
18780;SDS011;9519;51.890;8.970;2023-06-22T15:41:17;46.90;;;42.17;;
18780;SDS011;9519;51.890;8.970;2023-06-22T15:46:19;47.17;;;42.28;;
18780;SDS011;9519;51.890;8.970;2023-06-22T15:51:21;41.88;;;37.75;;
18780;SDS011;9519;51.890;8.970;2023-06-22T15:56:25;43.45;;;39.28;;
18780;SDS011;9519;51.890;8.970;2023-06-22T16:01:27;41.78;;;37.67;;
18780;SDS011;9519;51.890;8.970;2023-06-22T16:06:29;37.47;;;33.67;;
18780;SDS011;9519;51.890;8.970;2023-06-22T16:11:33;38.67;;;34.88;;
18780;SDS011;9519;51.890;8.970;2023-06-22T16:16:35;34.67;;;31.42;;
18780;SDS011;9519;51.890;8.970;2023-06-22T16:21:37;34.63;;;31.50;;
18780;SDS011;9519;51.890;8.970;2023-06-22T16:26:41;32.05;;;29.02;;
18780;SDS011;9519;51.890;8.970;2023-06-22T16:31:44;32.00;;;28.95;;
18780;SDS011;9519;51.890;8.970;2023-06-22T16:36:46;28.20;;;25.38;;
18780;SDS011;9519;51.890;8.970;2023-06-22T16:41:51;24.33;;;22.15;;
18780;SDS011;9519;51.890;8.970;2023-06-22T16:46:55;23.33;;;21.13;;
18780;SDS011;9519;51.890;8.970;2023-06-22T16:51:58;25.40;;;22.98;;
18780;SDS011;9519;51.890;8.970;2023-06-22T16:57:02;25.92;;;23.42;;
18780;SDS011;9519;51.890;8.970;2023-06-22T17:02:05;25.67;;;23.23;;
18780;SDS011;9519;51.890;8.970;2023-06-22T17:07:25;26.23;;;23.67;;
18780;SDS011;9519;51.890;8.970;2023-06-22T17:12:30;27.08;;;24.42;;
18780;SDS011;9519;51.890;8.970;2023-06-22T17:17:32;27.23;;;24.55;;
18780;SDS011;9519;51.890;8.970;2023-06-22T17:22:37;31.08;;;28.02;;
18780;SDS011;9519;51.890;8.970;2023-06-22T17:27:41;29.95;;;26.95;;
18780;SDS011;9519;51.890;8.970;2023-06-22T17:32:45;30.88;;;27.77;;
18780;SDS011;9519;51.890;8.970;2023-06-22T17:37:48;31.85;;;28.67;;
18780;SDS011;9519;51.890;8.970;2023-06-22T17:42:54;30.10;;;27.10;;
18780;SDS011;9519;51.890;8.970;2023-06-22T17:48:05;26.45;;;23.83;;
18780;SDS011;9519;51.890;8.970;2023-06-22T17:53:11;27.05;;;20.92;;
18780;SDS011;9519;51.890;8.970;2023-06-22T17:58:15;20.38;;;18.27;;
18780;SDS011;9519;51.890;8.970;2023-06-22T18:03:17;17.17;;;15.45;;
18780;SDS011;9519;51.890;8.970;2023-06-22T18:08:25;19.05;;;17.15;;
18780;SDS011;9519;51.890;8.970;2023-06-22T18:13:30;15.05;;;13.65;;
18780;SDS011;9519;51.890;8.970;2023-06-22T18:18:33;18.20;;;15.65;;
18780;SDS011;9519;51.890;8.970;2023-06-22T18:23:38;17.90;;;16.08;;
18780;SDS011;9519;51.890;8.970;2023-06-22T18:28:42;20.42;;;18.20;;
18780;SDS011;9519;51.890;8.970;2023-06-22T18:33:48;19.58;;;17.48;;
18780;SDS011;9519;51.890;8.970;2023-06-22T18:38:53;17.48;;;15.68;;
18780;SDS011;9519;51.890;8.970;2023-06-22T18:44:01;21.45;;;16.02;;
18780;SDS011;9519;51.890;8.970;2023-06-22T18:49:11;16.50;;;14.90;;
18780;SDS011;9519;51.890;8.970;2023-06-22T18:54:17;17.83;;;14.82;;
18780;SDS011;9519;51.890;8.970;2023-06-22T18:59:44;19.05;;;16.02;;
18780;SDS011;9519;51.890;8.970;2023-06-22T19:04:48;18.20;;;14.10;;
18780;SDS011;9519;51.890;8.970;2023-06-22T19:15:30;15.90;;;14.27;;
18780;SDS011;9519;51.890;8.970;2023-06-22T19:20:33;18.63;;;16.77;;
18780;SDS011;9519;51.890;8.970;2023-06-22T19:25:36;16.10;;;14.27;;
18780;SDS011;9519;51.890;8.970;2023-06-22T19:30:39;15.35;;;13.75;;
18780;SDS011;9519;51.890;8.970;2023-06-22T19:35:42;13.85;;;12.27;;
18780;SDS011;9519;51.890;8.970;2023-06-22T19:40:44;16.80;;;13.05;;
18780;SDS011;9519;51.890;8.970;2023-06-22T19:45:48;19.30;;;15.38;;
18780;SDS011;9519;51.890;8.970;2023-06-22T19:50:50;28.10;;;20.58;;
18780;SDS011;9519;51.890;8.970;2023-06-22T19:55:52;24.55;;;18.75;;
18780;SDS011;9519;51.890;8.970;2023-06-22T20:00:55;20.38;;;16.48;;
18780;SDS011;9519;51.890;8.970;2023-06-22T20:06:07;14.60;;;12.75;;
18780;SDS011;9519;51.890;8.970;2023-06-22T20:11:11;15.80;;;13.43;;
18780;SDS011;9519;51.890;8.970;2023-06-22T20:16:15;15.23;;;13.63;;
18780;SDS011;9519;51.890;8.970;2023-06-22T20:21:19;18.30;;;13.38;;
18780;SDS011;9519;51.890;8.970;2023-06-22T20:26:21;18.02;;;15.38;;
18780;SDS011;9519;51.890;8.970;2023-06-22T20:31:24;16.90;;;14.43;;
18780;SDS011;9519;51.890;8.970;2023-06-22T20:36:29;19.05;;;14.98;;
18780;SDS011;9519;51.890;8.970;2023-06-22T20:41:32;16.77;;;15.07;;
18780;SDS011;9519;51.890;8.970;2023-06-22T20:46:36;20.75;;;17.20;;
18780;SDS011;9519;51.890;8.970;2023-06-22T20:51:38;19.23;;;17.08;;
18780;SDS011;9519;51.890;8.970;2023-06-22T20:56:39;19.75;;;17.27;;
18780;SDS011;9519;51.890;8.970;2023-06-22T21:01:43;18.20;;;16.30;;
18780;SDS011;9519;51.890;8.970;2023-06-22T21:06:46;21.70;;;16.48;;
18780;SDS011;9519;51.890;8.970;2023-06-22T21:11:48;20.20;;;17.17;;
18780;SDS011;9519;51.890;8.970;2023-06-22T21:16:52;19.30;;;16.08;;
18780;SDS011;9519;51.890;8.970;2023-06-22T21:21:54;21.73;;;17.23;;
18780;SDS011;9519;51.890;8.970;2023-06-22T21:26:56;16.75;;;15.13;;
18780;SDS011;9519;51.890;8.970;2023-06-22T21:31:59;20.17;;;15.93;;
18780;SDS011;9519;51.890;8.970;2023-06-22T21:37:02;16.48;;;14.77;;
18780;SDS011;9519;51.890;8.970;2023-06-22T21:42:05;19.05;;;16.98;;
18780;SDS011;9519;51.890;8.970;2023-06-22T21:47:09;18.73;;;16.70;;
18780;SDS011;9519;51.890;8.970;2023-06-22T21:52:11;20.15;;;16.92;;
18780;SDS011;9519;51.890;8.970;2023-06-22T21:57:13;20.00;;;18.08;;
18780;SDS011;9519;51.890;8.970;2023-06-22T22:02:17;21.85;;;17.90;;
18780;SDS011;9519;51.890;8.970;2023-06-22T22:07:19;20.77;;;18.60;;
18780;SDS011;9519;51.890;8.970;2023-06-22T22:12:21;20.45;;;18.23;;
18780;SDS011;9519;51.890;8.970;2023-06-22T22:17:24;22.08;;;19.42;;
18780;SDS011;9519;51.890;8.970;2023-06-22T22:22:26;20.02;;;17.45;;
18780;SDS011;9519;51.890;8.970;2023-06-22T22:27:28;21.52;;;19.33;;
18780;SDS011;9519;51.890;8.970;2023-06-22T22:32:31;21.38;;;17.70;;
18780;SDS011;9519;51.890;8.970;2023-06-22T22:37:35;18.38;;;16.48;;
18780;SDS011;9519;51.890;8.970;2023-06-22T22:42:39;21.88;;;17.48;;
18780;SDS011;9519;51.890;8.970;2023-06-22T22:47:43;20.75;;;18.27;;
18780;SDS011;9519;51.890;8.970;2023-06-22T22:52:45;19.38;;;16.33;;
18780;SDS011;9519;51.890;8.970;2023-06-22T22:57:47;23.10;;;15.98;;
18780;SDS011;9519;51.890;8.970;2023-06-22T23:02:51;18.10;;;15.30;;
18780;SDS011;9519;51.890;8.970;2023-06-22T23:07:53;18.10;;;16.02;;
18780;SDS011;9519;51.890;8.970;2023-06-22T23:12:55;18.60;;;16.00;;
18780;SDS011;9519;51.890;8.970;2023-06-22T23:17:59;16.48;;;14.13;;
18780;SDS011;9519;51.890;8.970;2023-06-22T23:23:01;16.88;;;13.77;;
18780;SDS011;9519;51.890;8.970;2023-06-22T23:28:03;17.05;;;13.20;;
18780;SDS011;9519;51.890;8.970;2023-06-22T23:33:07;19.73;;;12.88;;
18780;SDS011;9519;51.890;8.970;2023-06-22T23:38:09;16.48;;;13.40;;
18780;SDS011;9519;51.890;8.970;2023-06-22T23:43:11;18.85;;;12.82;;
18780;SDS011;9519;51.890;8.970;2023-06-22T23:48:15;15.82;;;12.65;;
18780;SDS011;9519;51.890;8.970;2023-06-22T23:53:20;17.83;;;14.43;;
18780;SDS011;9519;51.890;8.970;2023-06-22T23:58:22;17.77;;;15.40;;
